sensor_id;sensor_type;location;lat;lon;timestamp;temperature;humidity
32217;DHT22;67098;51.140;4.088;2023-04-07T00:02:15;12.50;97.10
32217;DHT22;67098;51.140;4.088;2023-04-07T00:04:41;12.50;97.20
32217;DHT22;67098;51.140;4.088;2023-04-07T00:07:06;12.40;97.20
32217;DHT22;67098;51.140;4.088;2023-04-07T00:09:32;12.40;97.20
32217;DHT22;67098;51.140;4.088;2023-04-07T00:11:58;12.50;97.10
32217;DHT22;67098;51.140;4.088;2023-04-07T00:14:26;12.50;96.90
32217;DHT22;67098;51.140;4.088;2023-04-07T00:16:51;12.40;96.90
32217;DHT22;67098;51.140;4.088;2023-04-07T00:19:17;12.30;97.10
32217;DHT22;67098;51.140;4.088;2023-04-07T00:21:43;12.20;97.30
32217;DHT22;67098;51.140;4.088;2023-04-07T00:24:08;12.20;97.20
32217;DHT22;67098;51.140;4.088;2023-04-07T00:26:34;12.10;97.30
32217;DHT22;67098;51.140;4.088;2023-04-07T00:29:00;12.10;97.50
32217;DHT22;67098;51.140;4.088;2023-04-07T00:31:25;12.10;97.50
32217;DHT22;67098;51.140;4.088;2023-04-07T00:33:51;12.00;97.50
32217;DHT22;67098;51.140;4.088;2023-04-07T00:36:16;12.00;97.60
32217;DHT22;67098;51.140;4.088;2023-04-07T00:38:42;12.10;97.60
32217;DHT22;67098;51.140;4.088;2023-04-07T00:41:08;12.00;97.60
32217;DHT22;67098;51.140;4.088;2023-04-07T00:43:33;12.00;97.60
32217;DHT22;67098;51.140;4.088;2023-04-07T00:45:59;12.10;97.60
32217;DHT22;67098;51.140;4.088;2023-04-07T00:48:25;12.00;97.60
32217;DHT22;67098;51.140;4.088;2023-04-07T00:50:51;11.90;97.60
32217;DHT22;67098;51.140;4.088;2023-04-07T00:53:18;11.90;97.70
32217;DHT22;67098;51.140;4.088;2023-04-07T00:55:44;11.90;97.70
32217;DHT22;67098;51.140;4.088;2023-04-07T00:58:10;11.90;97.70
32217;DHT22;67098;51.140;4.088;2023-04-07T01:00:41;12.00;97.60
32217;DHT22;67098;51.140;4.088;2023-04-07T01:03:24;11.90;97.80
32217;DHT22;67098;51.140;4.088;2023-04-07T01:05:54;11.90;97.70
32217;DHT22;67098;51.140;4.088;2023-04-07T01:11:22;11.80;98.00
32217;DHT22;67098;51.140;4.088;2023-04-07T01:13:50;11.80;98.00
32217;DHT22;67098;51.140;4.088;2023-04-07T01:16:23;11.70;98.00
32217;DHT22;67098;51.140;4.088;2023-04-07T01:18:54;11.70;98.10
32217;DHT22;67098;51.140;4.088;2023-04-07T01:21:25;11.80;98.00
32217;DHT22;67098;51.140;4.088;2023-04-07T01:26:39;11.70;98.10
32217;DHT22;67098;51.140;4.088;2023-04-07T01:29:20;11.80;97.80
32217;DHT22;67098;51.140;4.088;2023-04-07T01:31:48;11.80;97.80
32217;DHT22;67098;51.140;4.088;2023-04-07T01:34:14;11.80;97.80
32217;DHT22;67098;51.140;4.088;2023-04-07T01:36:42;11.90;97.40
32217;DHT22;67098;51.140;4.088;2023-04-07T01:39:08;11.90;97.40
32217;DHT22;67098;51.140;4.088;2023-04-07T01:41:37;11.80;97.50
32217;DHT22;67098;51.140;4.088;2023-04-07T01:44:03;11.70;97.80
32217;DHT22;67098;51.140;4.088;2023-04-07T01:46:29;11.60;98.00
32217;DHT22;67098;51.140;4.088;2023-04-07T01:48:56;11.60;98.00
32217;DHT22;67098;51.140;4.088;2023-04-07T01:51:23;11.50;98.20
32217;DHT22;67098;51.140;4.088;2023-04-07T01:53:48;11.50;98.20
32217;DHT22;67098;51.140;4.088;2023-04-07T01:56:14;11.40;98.30
32217;DHT22;67098;51.140;4.088;2023-04-07T01:58:41;11.40;98.30
32217;DHT22;67098;51.140;4.088;2023-04-07T02:01:06;11.30;98.40
32217;DHT22;67098;51.140;4.088;2023-04-07T02:04:31;11.40;98.30
32217;DHT22;67098;51.140;4.088;2023-04-07T02:07:00;11.50;98.10
32217;DHT22;67098;51.140;4.088;2023-04-07T02:09:29;11.40;98.10
32217;DHT22;67098;51.140;4.088;2023-04-07T02:11:58;11.40;98.20
32217;DHT22;67098;51.140;4.088;2023-04-07T02:14:24;11.40;98.40
32217;DHT22;67098;51.140;4.088;2023-04-07T02:16:52;11.30;98.40
32217;DHT22;67098;51.140;4.088;2023-04-07T02:19:19;11.40;98.30
32217;DHT22;67098;51.140;4.088;2023-04-07T02:21:45;11.50;98.00
32217;DHT22;67098;51.140;4.088;2023-04-07T02:24:12;11.50;98.00
32217;DHT22;67098;51.140;4.088;2023-04-07T02:26:37;11.40;98.20
32217;DHT22;67098;51.140;4.088;2023-04-07T02:29:03;11.40;98.10
32217;DHT22;67098;51.140;4.088;2023-04-07T02:31:30;11.40;98.20
32217;DHT22;67098;51.140;4.088;2023-04-07T02:33:55;11.40;98.30
32217;DHT22;67098;51.140;4.088;2023-04-07T02:36:21;11.30;98.40
32217;DHT22;67098;51.140;4.088;2023-04-07T02:38:47;11.30;98.40
32217;DHT22;67098;51.140;4.088;2023-04-07T02:41:12;11.40;98.30
32217;DHT22;67098;51.140;4.088;2023-04-07T02:43:38;11.40;98.40
32217;DHT22;67098;51.140;4.088;2023-04-07T02:46:04;11.40;98.40
32217;DHT22;67098;51.140;4.088;2023-04-07T02:48:29;11.40;98.10
32217;DHT22;67098;51.140;4.088;2023-04-07T02:50:55;11.50;98.20
32217;DHT22;67098;51.140;4.088;2023-04-07T02:53:21;11.50;98.00
32217;DHT22;67098;51.140;4.088;2023-04-07T02:55:46;11.50;98.00
32217;DHT22;67098;51.140;4.088;2023-04-07T02:58:12;11.50;97.80
32217;DHT22;67098;51.140;4.088;2023-04-07T03:00:37;11.50;97.90
32217;DHT22;67098;51.140;4.088;2023-04-07T03:03:03;11.50;97.90
32217;DHT22;67098;51.140;4.088;2023-04-07T03:05:29;11.50;97.90
32217;DHT22;67098;51.140;4.088;2023-04-07T03:07:54;11.30;98.20
32217;DHT22;67098;51.140;4.088;2023-04-07T03:10:20;11.40;98.10
32217;DHT22;67098;51.140;4.088;2023-04-07T03:12:45;11.30;98.10
32217;DHT22;67098;51.140;4.088;2023-04-07T03:15:11;11.30;98.20
32217;DHT22;67098;51.140;4.088;2023-04-07T03:17:37;11.40;98.10
32217;DHT22;67098;51.140;4.088;2023-04-07T03:20:02;11.40;98.00
32217;DHT22;67098;51.140;4.088;2023-04-07T03:22:28;11.30;98.10
32217;DHT22;67098;51.140;4.088;2023-04-07T03:24:54;11.30;98.10
32217;DHT22;67098;51.140;4.088;2023-04-07T03:27:20;11.30;98.00
32217;DHT22;67098;51.140;4.088;2023-04-07T03:29:45;11.40;98.00
32217;DHT22;67098;51.140;4.088;2023-04-07T03:32:11;11.40;97.90
32217;DHT22;67098;51.140;4.088;2023-04-07T03:34:37;11.30;97.90
32217;DHT22;67098;51.140;4.088;2023-04-07T03:37:03;11.30;97.90
32217;DHT22;67098;51.140;4.088;2023-04-07T03:39:28;11.10;98.10
32217;DHT22;67098;51.140;4.088;2023-04-07T03:41:54;11.10;98.10
32217;DHT22;67098;51.140;4.088;2023-04-07T03:44:20;11.10;98.00
32217;DHT22;67098;51.140;4.088;2023-04-07T03:46:46;11.10;97.90
32217;DHT22;67098;51.140;4.088;2023-04-07T03:49:13;11.00;97.90
32217;DHT22;67098;51.140;4.088;2023-04-07T03:51:38;10.90;98.10
32217;DHT22;67098;51.140;4.088;2023-04-07T03:54:04;10.90;98.20
32217;DHT22;67098;51.140;4.088;2023-04-07T03:56:30;10.80;98.00
32217;DHT22;67098;51.140;4.088;2023-04-07T03:58:56;10.90;97.70
32217;DHT22;67098;51.140;4.088;2023-04-07T04:01:22;10.90;97.60
32217;DHT22;67098;51.140;4.088;2023-04-07T04:03:48;10.90;97.60
32217;DHT22;67098;51.140;4.088;2023-04-07T04:06:14;10.70;97.70
32217;DHT22;67098;51.140;4.088;2023-04-07T04:08:40;10.80;97.70
32217;DHT22;67098;51.140;4.088;2023-04-07T04:11:05;10.80;97.30
32217;DHT22;67098;51.140;4.088;2023-04-07T04:13:31;10.80;97.30
32217;DHT22;67098;51.140;4.088;2023-04-07T04:15:57;10.90;97.10
32217;DHT22;67098;51.140;4.088;2023-04-07T04:18:22;10.80;96.90
32217;DHT22;67098;51.140;4.088;2023-04-07T04:20:48;10.80;96.70
32217;DHT22;67098;51.140;4.088;2023-04-07T04:23:14;10.80;96.60
32217;DHT22;67098;51.140;4.088;2023-04-07T04:25:40;10.80;96.60
32217;DHT22;67098;51.140;4.088;2023-04-07T04:28:06;10.80;96.40
32217;DHT22;67098;51.140;4.088;2023-04-07T04:30:31;10.60;96.50
32217;DHT22;67098;51.140;4.088;2023-04-07T04:32:57;10.60;96.40
32217;DHT22;67098;51.140;4.088;2023-04-07T04:35:23;10.60;96.30
32217;DHT22;67098;51.140;4.088;2023-04-07T04:37:48;10.60;96.00
32217;DHT22;67098;51.140;4.088;2023-04-07T04:40:14;10.60;95.90
32217;DHT22;67098;51.140;4.088;2023-04-07T04:42:40;10.50;96.20
32217;DHT22;67098;51.140;4.088;2023-04-07T04:45:06;10.20;96.50
32217;DHT22;67098;51.140;4.088;2023-04-07T04:47:32;10.30;96.50
32217;DHT22;67098;51.140;4.088;2023-04-07T04:49:58;10.30;96.40
32217;DHT22;67098;51.140;4.088;2023-04-07T04:52:23;10.40;96.50
32217;DHT22;67098;51.140;4.088;2023-04-07T04:54:49;10.50;96.60
32217;DHT22;67098;51.140;4.088;2023-04-07T04:57:14;10.60;96.70
32217;DHT22;67098;51.140;4.088;2023-04-07T04:59:40;10.60;96.80
32217;DHT22;67098;51.140;4.088;2023-04-07T05:02:07;10.70;96.90
32217;DHT22;67098;51.140;4.088;2023-04-07T05:04:32;10.60;97.10
32217;DHT22;67098;51.140;4.088;2023-04-07T05:06:58;10.60;97.00
32217;DHT22;67098;51.140;4.088;2023-04-07T05:09:23;10.70;96.70
32217;DHT22;67098;51.140;4.088;2023-04-07T05:11:49;10.70;96.60
32217;DHT22;67098;51.140;4.088;2023-04-07T05:14:15;10.60;96.80
32217;DHT22;67098;51.140;4.088;2023-04-07T05:16:40;10.70;96.40
32217;DHT22;67098;51.140;4.088;2023-04-07T05:19:06;10.60;96.40
32217;DHT22;67098;51.140;4.088;2023-04-07T05:21:32;10.50;96.60
32217;DHT22;67098;51.140;4.088;2023-04-07T05:23:57;10.50;96.50
32217;DHT22;67098;51.140;4.088;2023-04-07T05:26:23;10.50;96.30
32217;DHT22;67098;51.140;4.088;2023-04-07T05:28:49;10.50;96.20
32217;DHT22;67098;51.140;4.088;2023-04-07T05:31:14;10.50;96.20
32217;DHT22;67098;51.140;4.088;2023-04-07T05:33:40;10.40;96.30
32217;DHT22;67098;51.140;4.088;2023-04-07T05:36:06;10.40;96.30
32217;DHT22;67098;51.140;4.088;2023-04-07T05:38:32;10.30;96.50
32217;DHT22;67098;51.140;4.088;2023-04-07T05:40:58;10.20;96.70
32217;DHT22;67098;51.140;4.088;2023-04-07T05:43:23;10.30;96.60
32217;DHT22;67098;51.140;4.088;2023-04-07T05:45:49;10.30;96.40
32217;DHT22;67098;51.140;4.088;2023-04-07T05:48:14;10.40;96.30
32217;DHT22;67098;51.140;4.088;2023-04-07T05:50:40;10.40;96.30
32217;DHT22;67098;51.140;4.088;2023-04-07T05:53:06;10.40;96.50
32217;DHT22;67098;51.140;4.088;2023-04-07T05:55:32;10.40;96.60
32217;DHT22;67098;51.140;4.088;2023-04-07T05:57:58;10.50;96.60
32217;DHT22;67098;51.140;4.088;2023-04-07T06:00:24;10.60;96.60
32217;DHT22;67098;51.140;4.088;2023-04-07T06:02:49;10.70;96.70
32217;DHT22;67098;51.140;4.088;2023-04-07T06:05:15;10.80;96.70
32217;DHT22;67098;51.140;4.088;2023-04-07T06:07:41;10.80;96.80
32217;DHT22;67098;51.140;4.088;2023-04-07T06:10:07;10.90;96.80
32217;DHT22;67098;51.140;4.088;2023-04-07T06:12:32;10.90;96.70
32217;DHT22;67098;51.140;4.088;2023-04-07T06:14:58;11.00;96.80
32217;DHT22;67098;51.140;4.088;2023-04-07T06:17:24;11.00;96.70
32217;DHT22;67098;51.140;4.088;2023-04-07T06:19:50;11.10;96.70
32217;DHT22;67098;51.140;4.088;2023-04-07T06:22:15;11.10;96.90
32217;DHT22;67098;51.140;4.088;2023-04-07T06:24:41;11.20;97.10
32217;DHT22;67098;51.140;4.088;2023-04-07T06:27:07;11.20;97.20
32217;DHT22;67098;51.140;4.088;2023-04-07T06:29:33;11.30;97.40
32217;DHT22;67098;51.140;4.088;2023-04-07T06:31:59;11.40;97.30
32217;DHT22;67098;51.140;4.088;2023-04-07T06:34:25;11.60;97.40
32217;DHT22;67098;51.140;4.088;2023-04-07T06:36:51;11.50;97.20
32217;DHT22;67098;51.140;4.088;2023-04-07T06:39:16;11.60;97.30
32217;DHT22;67098;51.140;4.088;2023-04-07T06:41:42;11.70;97.20
32217;DHT22;67098;51.140;4.088;2023-04-07T06:44:09;11.80;97.20
32217;DHT22;67098;51.140;4.088;2023-04-07T06:46:37;11.80;97.10
32217;DHT22;67098;51.140;4.088;2023-04-07T06:49:03;11.90;97.20
32217;DHT22;67098;51.140;4.088;2023-04-07T06:51:29;11.90;96.90
32217;DHT22;67098;51.140;4.088;2023-04-07T06:53:56;11.90;97.00
32217;DHT22;67098;51.140;4.088;2023-04-07T06:56:22;11.80;97.00
32217;DHT22;67098;51.140;4.088;2023-04-07T06:58:48;11.90;97.20
32217;DHT22;67098;51.140;4.088;2023-04-07T07:01:14;11.90;97.20
32217;DHT22;67098;51.140;4.088;2023-04-07T07:03:40;11.80;97.20
32217;DHT22;67098;51.140;4.088;2023-04-07T07:06:05;11.90;97.10
32217;DHT22;67098;51.140;4.088;2023-04-07T07:08:31;11.90;97.10
32217;DHT22;67098;51.140;4.088;2023-04-07T07:10:57;11.90;96.90
32217;DHT22;67098;51.140;4.088;2023-04-07T07:13:23;12.00;97.00
32217;DHT22;67098;51.140;4.088;2023-04-07T07:15:50;11.80;97.30
32217;DHT22;67098;51.140;4.088;2023-04-07T07:18:16;11.90;97.20
32217;DHT22;67098;51.140;4.088;2023-04-07T07:20:42;11.80;97.40
32217;DHT22;67098;51.140;4.088;2023-04-07T07:23:08;11.80;97.30
32217;DHT22;67098;51.140;4.088;2023-04-07T07:25:33;11.80;97.20
32217;DHT22;67098;51.140;4.088;2023-04-07T07:27:59;11.90;97.10
32217;DHT22;67098;51.140;4.088;2023-04-07T07:30:25;12.00;97.20
32217;DHT22;67098;51.140;4.088;2023-04-07T07:32:52;12.10;97.10
32217;DHT22;67098;51.140;4.088;2023-04-07T07:35:18;12.40;97.60
32217;DHT22;67098;51.140;4.088;2023-04-07T07:37:44;12.80;97.60
32217;DHT22;67098;51.140;4.088;2023-04-07T07:40:10;13.00;96.70
32217;DHT22;67098;51.140;4.088;2023-04-07T07:42:36;13.10;96.10
32217;DHT22;67098;51.140;4.088;2023-04-07T07:45:03;13.10;95.30
32217;DHT22;67098;51.140;4.088;2023-04-07T07:47:29;12.90;95.30
32217;DHT22;67098;51.140;4.088;2023-04-07T07:49:55;12.80;95.60
32217;DHT22;67098;51.140;4.088;2023-04-07T07:52:21;12.80;95.70
32217;DHT22;67098;51.140;4.088;2023-04-07T07:54:49;12.80;95.60
32217;DHT22;67098;51.140;4.088;2023-04-07T07:57:16;12.90;95.60
32217;DHT22;67098;51.140;4.088;2023-04-07T07:59:41;13.00;95.50
32217;DHT22;67098;51.140;4.088;2023-04-07T08:02:08;13.00;95.60
32217;DHT22;67098;51.140;4.088;2023-04-07T08:04:35;13.10;95.60
32217;DHT22;67098;51.140;4.088;2023-04-07T08:07:01;13.10;95.10
32217;DHT22;67098;51.140;4.088;2023-04-07T08:09:26;13.30;94.40
32217;DHT22;67098;51.140;4.088;2023-04-07T08:11:52;13.10;95.20
32217;DHT22;67098;51.140;4.088;2023-04-07T08:14:18;13.30;95.20
32217;DHT22;67098;51.140;4.088;2023-04-07T08:16:44;13.50;94.70
32217;DHT22;67098;51.140;4.088;2023-04-07T08:19:10;13.40;94.70
32217;DHT22;67098;51.140;4.088;2023-04-07T08:21:36;13.60;93.70
32217;DHT22;67098;51.140;4.088;2023-04-07T08:24:02;13.70;93.70
32217;DHT22;67098;51.140;4.088;2023-04-07T08:26:27;13.90;93.50
32217;DHT22;67098;51.140;4.088;2023-04-07T08:28:53;14.00;93.70
32217;DHT22;67098;51.140;4.088;2023-04-07T08:31:20;14.40;93.50
32217;DHT22;67098;51.140;4.088;2023-04-07T08:33:46;14.70;92.30
32217;DHT22;67098;51.140;4.088;2023-04-07T08:36:11;14.90;91.70
32217;DHT22;67098;51.140;4.088;2023-04-07T08:38:37;14.70;92.20
32217;DHT22;67098;51.140;4.088;2023-04-07T08:41:15;14.30;92.90
32217;DHT22;67098;51.140;4.088;2023-04-07T08:43:43;14.00;93.90
32217;DHT22;67098;51.140;4.088;2023-04-07T08:46:10;14.00;93.80
32217;DHT22;67098;51.140;4.088;2023-04-07T08:48:37;14.30;92.80
32217;DHT22;67098;51.140;4.088;2023-04-07T08:51:06;14.80;91.80
32217;DHT22;67098;51.140;4.088;2023-04-07T08:53:40;15.10;91.70
32217;DHT22;67098;51.140;4.088;2023-04-07T08:56:10;15.30;91.10
32217;DHT22;67098;51.140;4.088;2023-04-07T08:58:36;15.50;91.20
32217;DHT22;67098;51.140;4.088;2023-04-07T09:01:04;15.50;90.80
32217;DHT22;67098;51.140;4.088;2023-04-07T09:03:32;15.60;90.40
32217;DHT22;67098;51.140;4.088;2023-04-07T09:06:00;15.70;90.30
32217;DHT22;67098;51.140;4.088;2023-04-07T09:08:26;15.60;90.10
32217;DHT22;67098;51.140;4.088;2023-04-07T09:10:52;15.50;90.50
32217;DHT22;67098;51.140;4.088;2023-04-07T09:13:18;15.50;90.50
32217;DHT22;67098;51.140;4.088;2023-04-07T09:15:45;15.50;90.70
32217;DHT22;67098;51.140;4.088;2023-04-07T09:18:10;15.50;90.50
32217;DHT22;67098;51.140;4.088;2023-04-07T09:21:02;15.40;90.50
32217;DHT22;67098;51.140;4.088;2023-04-07T09:23:39;15.40;90.80
32217;DHT22;67098;51.140;4.088;2023-04-07T09:28:57;15.60;90.50
32217;DHT22;67098;51.140;4.088;2023-04-07T09:31:42;15.60;90.20
32217;DHT22;67098;51.140;4.088;2023-04-07T09:34:26;15.70;90.20
32217;DHT22;67098;51.140;4.088;2023-04-07T09:36:52;15.60;90.10
32217;DHT22;67098;51.140;4.088;2023-04-07T09:39:18;15.50;89.90
32217;DHT22;67098;51.140;4.088;2023-04-07T09:41:44;15.60;90.50
32217;DHT22;67098;51.140;4.088;2023-04-07T09:44:10;15.80;90.20
32217;DHT22;67098;51.140;4.088;2023-04-07T09:46:56;16.00;90.10
32217;DHT22;67098;51.140;4.088;2023-04-07T09:49:25;16.30;89.50
32217;DHT22;67098;51.140;4.088;2023-04-07T09:54:31;16.50;88.10
32217;DHT22;67098;51.140;4.088;2023-04-07T09:56:59;16.80;88.00
32217;DHT22;67098;51.140;4.088;2023-04-07T09:59:27;16.90;87.60
32217;DHT22;67098;51.140;4.088;2023-04-07T10:01:54;16.80;86.60
32217;DHT22;67098;51.140;4.088;2023-04-07T10:04:19;16.70;86.20
32217;DHT22;67098;51.140;4.088;2023-04-07T10:06:47;16.60;85.40
32217;DHT22;67098;51.140;4.088;2023-04-07T10:09:13;16.50;85.00
32217;DHT22;67098;51.140;4.088;2023-04-07T10:11:42;16.40;85.90
32217;DHT22;67098;51.140;4.088;2023-04-07T10:14:11;16.30;86.30
32217;DHT22;67098;51.140;4.088;2023-04-07T10:16:37;16.40;86.50
32217;DHT22;67098;51.140;4.088;2023-04-07T10:19:05;16.50;86.40
32217;DHT22;67098;51.140;4.088;2023-04-07T10:21:35;16.70;86.30
32217;DHT22;67098;51.140;4.088;2023-04-07T10:27:01;17.00;85.10
32217;DHT22;67098;51.140;4.088;2023-04-07T10:29:32;17.40;84.30
32217;DHT22;67098;51.140;4.088;2023-04-07T10:32:00;17.60;83.40
32217;DHT22;67098;51.140;4.088;2023-04-07T10:37:22;17.50;81.40
32217;DHT22;67098;51.140;4.088;2023-04-07T10:45:05;17.30;83.10
32217;DHT22;67098;51.140;4.088;2023-04-07T10:47:31;17.60;83.00
32217;DHT22;67098;51.140;4.088;2023-04-07T10:50:15;18.00;82.00
32217;DHT22;67098;51.140;4.088;2023-04-07T10:52:46;18.20;80.70
32217;DHT22;67098;51.140;4.088;2023-04-07T10:55:32;18.30;78.70
32217;DHT22;67098;51.140;4.088;2023-04-07T10:58:24;18.20;78.90
32217;DHT22;67098;51.140;4.088;2023-04-07T11:03:51;18.40;77.50
32217;DHT22;67098;51.140;4.088;2023-04-07T11:06:17;18.30;78.10
32217;DHT22;67098;51.140;4.088;2023-04-07T11:08:43;18.30;78.00
32217;DHT22;67098;51.140;4.088;2023-04-07T11:11:11;18.20;78.30
32217;DHT22;67098;51.140;4.088;2023-04-07T11:13:49;17.90;78.70
32217;DHT22;67098;51.140;4.088;2023-04-07T11:16:18;17.80;79.10
32217;DHT22;67098;51.140;4.088;2023-04-07T11:18:45;17.60;79.90
32217;DHT22;67098;51.140;4.088;2023-04-07T11:21:16;17.30;80.00
32217;DHT22;67098;51.140;4.088;2023-04-07T11:23:43;17.30;81.00
32217;DHT22;67098;51.140;4.088;2023-04-07T11:26:12;17.50;80.90
32217;DHT22;67098;51.140;4.088;2023-04-07T11:28:49;17.10;81.20
32217;DHT22;67098;51.140;4.088;2023-04-07T11:31:29;16.70;82.20
32217;DHT22;67098;51.140;4.088;2023-04-07T11:34:00;16.40;82.10
32217;DHT22;67098;51.140;4.088;2023-04-07T11:36:27;16.10;84.30
32217;DHT22;67098;51.140;4.088;2023-04-07T11:38:53;15.90;84.60
32217;DHT22;67098;51.140;4.088;2023-04-07T11:41:20;15.80;85.00
32217;DHT22;67098;51.140;4.088;2023-04-07T11:43:45;15.70;85.10
32217;DHT22;67098;51.140;4.088;2023-04-07T11:46:14;15.60;84.70
32217;DHT22;67098;51.140;4.088;2023-04-07T11:48:42;15.30;85.90
32217;DHT22;67098;51.140;4.088;2023-04-07T11:51:21;15.00;87.40
32217;DHT22;67098;51.140;4.088;2023-04-07T11:53:54;14.80;90.10
32217;DHT22;67098;51.140;4.088;2023-04-07T11:56:20;14.90;88.90
32217;DHT22;67098;51.140;4.088;2023-04-07T11:58:54;15.10;88.00
32217;DHT22;67098;51.140;4.088;2023-04-07T12:01:20;15.30;88.50
32217;DHT22;67098;51.140;4.088;2023-04-07T12:04:03;15.20;88.30
32217;DHT22;67098;51.140;4.088;2023-04-07T12:06:30;15.10;87.70
32217;DHT22;67098;51.140;4.088;2023-04-07T12:08:59;14.70;88.20
32217;DHT22;67098;51.140;4.088;2023-04-07T12:11:26;14.70;88.20
32217;DHT22;67098;51.140;4.088;2023-04-07T12:13:52;14.50;89.00
32217;DHT22;67098;51.140;4.088;2023-04-07T12:16:19;14.50;88.90
32217;DHT22;67098;51.140;4.088;2023-04-07T12:18:46;14.60;88.60
32217;DHT22;67098;51.140;4.088;2023-04-07T12:21:12;14.60;87.90
32217;DHT22;67098;51.140;4.088;2023-04-07T12:23:38;14.60;87.90
32217;DHT22;67098;51.140;4.088;2023-04-07T12:26:04;14.70;88.30
32217;DHT22;67098;51.140;4.088;2023-04-07T12:28:29;14.60;87.50
32217;DHT22;67098;51.140;4.088;2023-04-07T12:30:55;14.60;87.10
32217;DHT22;67098;51.140;4.088;2023-04-07T12:33:21;14.50;88.00
32217;DHT22;67098;51.140;4.088;2023-04-07T12:35:46;14.60;88.20
32217;DHT22;67098;51.140;4.088;2023-04-07T12:38:12;14.70;88.30
32217;DHT22;67098;51.140;4.088;2023-04-07T12:40:38;14.80;88.10
32217;DHT22;67098;51.140;4.088;2023-04-07T12:43:05;14.70;87.80
32217;DHT22;67098;51.140;4.088;2023-04-07T12:45:31;14.70;87.90
32217;DHT22;67098;51.140;4.088;2023-04-07T12:47:57;14.60;88.20
32217;DHT22;67098;51.140;4.088;2023-04-07T12:50:23;14.30;89.70
32217;DHT22;67098;51.140;4.088;2023-04-07T12:52:50;14.10;89.70
32217;DHT22;67098;51.140;4.088;2023-04-07T12:55:19;14.10;90.20
32217;DHT22;67098;51.140;4.088;2023-04-07T12:57:45;14.20;89.80
32217;DHT22;67098;51.140;4.088;2023-04-07T13:00:13;14.40;89.50
32217;DHT22;67098;51.140;4.088;2023-04-07T13:02:39;14.50;89.60
32217;DHT22;67098;51.140;4.088;2023-04-07T13:05:06;14.40;89.30
32217;DHT22;67098;51.140;4.088;2023-04-07T13:07:31;14.40;89.50
32217;DHT22;67098;51.140;4.088;2023-04-07T13:09:59;14.30;89.10
32217;DHT22;67098;51.140;4.088;2023-04-07T13:12:25;14.40;89.40
32217;DHT22;67098;51.140;4.088;2023-04-07T13:14:51;14.40;89.10
32217;DHT22;67098;51.140;4.088;2023-04-07T13:17:16;14.60;88.60
32217;DHT22;67098;51.140;4.088;2023-04-07T13:19:43;14.70;88.00
32217;DHT22;67098;51.140;4.088;2023-04-07T13:22:11;14.50;88.90
32217;DHT22;67098;51.140;4.088;2023-04-07T13:24:37;14.50;88.20
32217;DHT22;67098;51.140;4.088;2023-04-07T13:27:02;14.30;87.70
32217;DHT22;67098;51.140;4.088;2023-04-07T13:29:29;14.20;88.80
32217;DHT22;67098;51.140;4.088;2023-04-07T13:32:06;14.10;89.20
32217;DHT22;67098;51.140;4.088;2023-04-07T13:34:33;14.00;89.30
32217;DHT22;67098;51.140;4.088;2023-04-07T13:37:03;14.00;89.70
32217;DHT22;67098;51.140;4.088;2023-04-07T13:39:30;14.10;89.40
32217;DHT22;67098;51.140;4.088;2023-04-07T13:41:56;14.20;89.00
32217;DHT22;67098;51.140;4.088;2023-04-07T13:44:23;14.30;88.80
32217;DHT22;67098;51.140;4.088;2023-04-07T13:46:49;14.40;88.20
32217;DHT22;67098;51.140;4.088;2023-04-07T13:49:14;14.20;86.90
32217;DHT22;67098;51.140;4.088;2023-04-07T13:51:40;14.10;87.60
32217;DHT22;67098;51.140;4.088;2023-04-07T13:54:06;14.00;87.40
32217;DHT22;67098;51.140;4.088;2023-04-07T13:56:32;13.80;87.70
32217;DHT22;67098;51.140;4.088;2023-04-07T13:59:00;13.70;88.40
32217;DHT22;67098;51.140;4.088;2023-04-07T14:01:26;13.90;88.30
32217;DHT22;67098;51.140;4.088;2023-04-07T14:03:52;14.00;87.90
32217;DHT22;67098;51.140;4.088;2023-04-07T14:06:18;13.90;88.20
32217;DHT22;67098;51.140;4.088;2023-04-07T14:08:47;13.80;88.40
32217;DHT22;67098;51.140;4.088;2023-04-07T14:11:17;13.90;87.40
32217;DHT22;67098;51.140;4.088;2023-04-07T14:13:43;13.70;88.70
32217;DHT22;67098;51.140;4.088;2023-04-07T14:16:08;13.90;87.70
32217;DHT22;67098;51.140;4.088;2023-04-07T14:18:34;14.00;87.90
32217;DHT22;67098;51.140;4.088;2023-04-07T14:21:00;14.30;86.70
32217;DHT22;67098;51.140;4.088;2023-04-07T14:23:27;14.60;84.60
32217;DHT22;67098;51.140;4.088;2023-04-07T14:25:53;14.40;85.50
32217;DHT22;67098;51.140;4.088;2023-04-07T14:28:18;14.20;86.60
32217;DHT22;67098;51.140;4.088;2023-04-07T14:30:44;14.10;86.70
32217;DHT22;67098;51.140;4.088;2023-04-07T14:33:10;14.20;86.00
32217;DHT22;67098;51.140;4.088;2023-04-07T14:35:36;14.10;86.50
32217;DHT22;67098;51.140;4.088;2023-04-07T14:38:02;14.00;86.40
32217;DHT22;67098;51.140;4.088;2023-04-07T14:40:28;14.10;86.00
32217;DHT22;67098;51.140;4.088;2023-04-07T14:42:53;14.20;85.40
32217;DHT22;67098;51.140;4.088;2023-04-07T14:45:20;14.10;85.80
32217;DHT22;67098;51.140;4.088;2023-04-07T14:47:45;14.00;86.80
32217;DHT22;67098;51.140;4.088;2023-04-07T14:50:11;13.80;86.10
32217;DHT22;67098;51.140;4.088;2023-04-07T14:52:37;13.80;85.40
32217;DHT22;67098;51.140;4.088;2023-04-07T14:55:03;13.60;86.20
32217;DHT22;67098;51.140;4.088;2023-04-07T14:57:28;13.60;86.10
32217;DHT22;67098;51.140;4.088;2023-04-07T14:59:54;13.60;86.60
32217;DHT22;67098;51.140;4.088;2023-04-07T15:02:20;13.50;86.10
32217;DHT22;67098;51.140;4.088;2023-04-07T15:04:46;13.30;86.90
32217;DHT22;67098;51.140;4.088;2023-04-07T15:07:11;13.50;86.60
32217;DHT22;67098;51.140;4.088;2023-04-07T15:09:37;13.70;85.80
32217;DHT22;67098;51.140;4.088;2023-04-07T15:12:03;14.00;85.00
32217;DHT22;67098;51.140;4.088;2023-04-07T15:14:29;14.20;84.20
32217;DHT22;67098;51.140;4.088;2023-04-07T15:16:55;14.30;83.20
32217;DHT22;67098;51.140;4.088;2023-04-07T15:19:20;14.40;83.20
32217;DHT22;67098;51.140;4.088;2023-04-07T15:21:46;14.60;82.50
32217;DHT22;67098;51.140;4.088;2023-04-07T15:24:12;14.60;82.60
32217;DHT22;67098;51.140;4.088;2023-04-07T15:26:37;14.70;81.90
32217;DHT22;67098;51.140;4.088;2023-04-07T15:29:03;14.80;81.20
32217;DHT22;67098;51.140;4.088;2023-04-07T15:31:28;14.80;80.40
32217;DHT22;67098;51.140;4.088;2023-04-07T15:33:54;14.70;80.60
32217;DHT22;67098;51.140;4.088;2023-04-07T15:36:20;14.60;80.80
32217;DHT22;67098;51.140;4.088;2023-04-07T15:38:45;14.60;81.20
32217;DHT22;67098;51.140;4.088;2023-04-07T15:41:15;14.30;81.80
32217;DHT22;67098;51.140;4.088;2023-04-07T15:43:41;14.30;82.00
32217;DHT22;67098;51.140;4.088;2023-04-07T15:46:06;14.20;82.00
32217;DHT22;67098;51.140;4.088;2023-04-07T15:48:32;14.10;82.70
32217;DHT22;67098;51.140;4.088;2023-04-07T15:50:57;14.10;83.00
32217;DHT22;67098;51.140;4.088;2023-04-07T15:53:23;14.10;83.20
32217;DHT22;67098;51.140;4.088;2023-04-07T15:55:49;14.00;83.50